Terminal Aerodrome Forecast
Issued by NWS St Louis, MO

Home | Current Version | Previous Version | Graphics & Text | Print | Product List | Glossary On
Versions: 1 2 3 4 5 6 7 8 9 10 11 12 13 14 15 16 17 18 19 20 21 22 23 24 25 26 27 28
737
FTUS43 KLSX 260937 AAB
TAFSTL
TAF AMD
KSTL 260937Z 2610/2712 19007KT P6SM BKN080 WS017/22040KT
     FM261200 20010KT P6SM BKN070
      TEMPO 2612/2615 5SM -TSRA BKN040CB
     FM262200 18009KT P6SM SCT040 SCT120
     FM270800 19005KT P6SM -SHRA BKN040=

USA.gov is the U.S. government's official web portal to all federal, state and local government web resources and services.